sensor_id;sensor_type;location;lat;lon;timestamp;P1;durP1;ratioP1;P2;durP2;ratioP2
38399;SDS011;24180;42.676;23.320;2022-12-13T00:01:15;8.37;;;6.93;;
38399;SDS011;24180;42.676;23.320;2022-12-13T00:03:41;9.87;;;7.57;;
38399;SDS011;24180;42.676;23.320;2022-12-13T00:06:07;8.37;;;6.57;;
38399;SDS011;24180;42.676;23.320;2022-12-13T00:08:34;8.47;;;6.77;;
38399;SDS011;24180;42.676;23.320;2022-12-13T00:11:01;8.10;;;6.67;;
38399;SDS011;24180;42.676;23.320;2022-12-13T00:13:28;7.97;;;6.53;;
38399;SDS011;24180;42.676;23.320;2022-12-13T00:16:01;8.27;;;6.57;;
38399;SDS011;24180;42.676;23.320;2022-12-13T00:18:28;8.93;;;6.27;;
38399;SDS011;24180;42.676;23.320;2022-12-13T00:20:54;8.17;;;6.50;;
38399;SDS011;24180;42.676;23.320;2022-12-13T00:23:20;6.10;;;5.50;;
38399;SDS011;24180;42.676;23.320;2022-12-13T00:25:46;6.00;;;5.33;;
38399;SDS011;24180;42.676;23.320;2022-12-13T00:28:11;5.23;;;4.70;;
38399;SDS011;24180;42.676;23.320;2022-12-13T00:30:37;8.07;;;5.73;;
38399;SDS011;24180;42.676;23.320;2022-12-13T00:33:04;5.57;;;5.00;;
38399;SDS011;24180;42.676;23.320;2022-12-13T00:35:30;9.00;;;6.27;;
38399;SDS011;24180;42.676;23.320;2022-12-13T00:37:56;9.13;;;6.60;;
38399;SDS011;24180;42.676;23.320;2022-12-13T00:40:22;8.93;;;5.83;;
38399;SDS011;24180;42.676;23.320;2022-12-13T00:42:47;7.83;;;6.70;;
38399;SDS011;24180;42.676;23.320;2022-12-13T00:45:13;8.67;;;7.00;;
38399;SDS011;24180;42.676;23.320;2022-12-13T00:47:38;8.37;;;6.43;;
38399;SDS011;24180;42.676;23.320;2022-12-13T00:50:04;7.40;;;6.07;;
38399;SDS011;24180;42.676;23.320;2022-12-13T00:52:30;9.17;;;6.63;;
38399;SDS011;24180;42.676;23.320;2022-12-13T00:54:55;9.83;;;6.47;;
38399;SDS011;24180;42.676;23.320;2022-12-13T00:57:20;8.30;;;6.90;;
38399;SDS011;24180;42.676;23.320;2022-12-13T00:59:46;8.77;;;5.57;;
38399;SDS011;24180;42.676;23.320;2022-12-13T01:02:12;9.10;;;6.83;;
38399;SDS011;24180;42.676;23.320;2022-12-13T01:04:37;10.10;;;7.07;;
38399;SDS011;24180;42.676;23.320;2022-12-13T01:07:03;7.70;;;6.40;;
38399;SDS011;24180;42.676;23.320;2022-12-13T01:09:28;6.93;;;5.20;;
38399;SDS011;24180;42.676;23.320;2022-12-13T01:12:00;9.70;;;7.50;;
38399;SDS011;24180;42.676;23.320;2022-12-13T01:14:28;8.53;;;6.23;;
38399;SDS011;24180;42.676;23.320;2022-12-13T01:16:54;9.83;;;7.83;;
38399;SDS011;24180;42.676;23.320;2022-12-13T01:19:23;8.57;;;6.00;;
38399;SDS011;24180;42.676;23.320;2022-12-13T01:21:54;8.77;;;6.63;;
38399;SDS011;24180;42.676;23.320;2022-12-13T01:24:20;6.97;;;6.17;;
38399;SDS011;24180;42.676;23.320;2022-12-13T01:26:48;9.33;;;7.40;;
38399;SDS011;24180;42.676;23.320;2022-12-13T01:29:14;8.53;;;7.33;;
38399;SDS011;24180;42.676;23.320;2022-12-13T01:31:40;11.43;;;7.93;;
38399;SDS011;24180;42.676;23.320;2022-12-13T01:34:16;10.13;;;7.93;;
38399;SDS011;24180;42.676;23.320;2022-12-13T01:36:44;9.17;;;7.17;;
38399;SDS011;24180;42.676;23.320;2022-12-13T01:39:12;9.30;;;7.37;;
38399;SDS011;24180;42.676;23.320;2022-12-13T01:41:39;10.90;;;7.87;;
38399;SDS011;24180;42.676;23.320;2022-12-13T01:44:55;9.73;;;7.20;;
38399;SDS011;24180;42.676;23.320;2022-12-13T01:47:10;10.57;;;7.67;;
38399;SDS011;24180;42.676;23.320;2022-12-13T01:49:36;9.20;;;7.33;;
38399;SDS011;24180;42.676;23.320;2022-12-13T01:52:03;10.73;;;7.20;;
38399;SDS011;24180;42.676;23.320;2022-12-13T01:54:33;8.77;;;6.30;;
38399;SDS011;24180;42.676;23.320;2022-12-13T01:57:04;9.73;;;7.67;;
38399;SDS011;24180;42.676;23.320;2022-12-13T01:59:35;10.13;;;8.07;;
38399;SDS011;24180;42.676;23.320;2022-12-13T02:02:02;8.90;;;7.10;;
38399;SDS011;24180;42.676;23.320;2022-12-13T02:04:29;9.47;;;6.77;;
38399;SDS011;24180;42.676;23.320;2022-12-13T02:07:01;9.17;;;7.53;;
38399;SDS011;24180;42.676;23.320;2022-12-13T02:09:27;9.77;;;7.63;;
38399;SDS011;24180;42.676;23.320;2022-12-13T02:11:53;9.97;;;7.73;;
38399;SDS011;24180;42.676;23.320;2022-12-13T02:14:19;10.93;;;8.23;;
38399;SDS011;24180;42.676;23.320;2022-12-13T02:28:05;10.30;;;8.20;;
38399;SDS011;24180;42.676;23.320;2022-12-13T02:30:48;10.00;;;7.67;;
38399;SDS011;24180;42.676;23.320;2022-12-13T02:36:05;11.00;;;8.13;;
38399;SDS011;24180;42.676;23.320;2022-12-13T02:38:42;10.80;;;8.00;;
38399;SDS011;24180;42.676;23.320;2022-12-13T02:41:22;12.63;;;9.30;;
38399;SDS011;24180;42.676;23.320;2022-12-13T02:44:03;9.30;;;7.43;;
38399;SDS011;24180;42.676;23.320;2022-12-13T02:46:35;10.63;;;8.23;;
38399;SDS011;24180;42.676;23.320;2022-12-13T02:49:07;11.73;;;7.77;;
38399;SDS011;24180;42.676;23.320;2022-12-13T02:51:34;11.43;;;8.07;;
38399;SDS011;24180;42.676;23.320;2022-12-13T02:54:02;8.63;;;6.27;;
38399;SDS011;24180;42.676;23.320;2022-12-13T02:56:29;10.77;;;8.07;;
38399;SDS011;24180;42.676;23.320;2022-12-13T02:58:56;11.23;;;8.33;;
38399;SDS011;24180;42.676;23.320;2022-12-13T03:10:58;12.17;;;9.40;;
38399;SDS011;24180;42.676;23.320;2022-12-13T03:13:50;12.67;;;8.97;;
38399;SDS011;24180;42.676;23.320;2022-12-13T03:16:21;11.70;;;8.43;;
38399;SDS011;24180;42.676;23.320;2022-12-13T03:18:53;11.30;;;8.80;;
38399;SDS011;24180;42.676;23.320;2022-12-13T03:21:21;12.70;;;8.73;;
38399;SDS011;24180;42.676;23.320;2022-12-13T03:23:47;9.73;;;7.47;;
38399;SDS011;24180;42.676;23.320;2022-12-13T03:26:14;12.53;;;9.53;;
38399;SDS011;24180;42.676;23.320;2022-12-13T03:28:42;11.33;;;8.70;;
38399;SDS011;24180;42.676;23.320;2022-12-13T03:31:08;14.57;;;9.60;;
38399;SDS011;24180;42.676;23.320;2022-12-13T03:33:33;12.07;;;8.80;;
38399;SDS011;24180;42.676;23.320;2022-12-13T03:35:59;11.10;;;8.37;;
38399;SDS011;24180;42.676;23.320;2022-12-13T03:38:26;12.70;;;8.83;;
38399;SDS011;24180;42.676;23.320;2022-12-13T03:40:53;12.30;;;8.90;;
38399;SDS011;24180;42.676;23.320;2022-12-13T03:43:21;11.70;;;8.97;;
38399;SDS011;24180;42.676;23.320;2022-12-13T03:45:47;12.57;;;8.43;;
38399;SDS011;24180;42.676;23.320;2022-12-13T03:48:12;12.27;;;9.47;;
38399;SDS011;24180;42.676;23.320;2022-12-13T03:50:38;12.83;;;9.33;;
38399;SDS011;24180;42.676;23.320;2022-12-13T03:53:03;12.73;;;8.50;;
38399;SDS011;24180;42.676;23.320;2022-12-13T03:55:29;9.60;;;7.63;;
38399;SDS011;24180;42.676;23.320;2022-12-13T03:57:54;11.77;;;8.97;;
38399;SDS011;24180;42.676;23.320;2022-12-13T04:00:20;12.17;;;8.93;;
38399;SDS011;24180;42.676;23.320;2022-12-13T04:02:46;13.23;;;8.70;;
38399;SDS011;24180;42.676;23.320;2022-12-13T04:05:11;13.77;;;9.67;;
38399;SDS011;24180;42.676;23.320;2022-12-13T04:07:37;13.87;;;9.43;;
38399;SDS011;24180;42.676;23.320;2022-12-13T04:10:02;12.40;;;8.67;;
38399;SDS011;24180;42.676;23.320;2022-12-13T04:12:29;11.97;;;8.63;;
38399;SDS011;24180;42.676;23.320;2022-12-13T04:15:12;11.77;;;8.77;;
38399;SDS011;24180;42.676;23.320;2022-12-13T04:17:38;12.47;;;8.20;;
38399;SDS011;24180;42.676;23.320;2022-12-13T04:20:03;11.97;;;9.40;;
38399;SDS011;24180;42.676;23.320;2022-12-13T04:22:29;11.70;;;8.60;;
38399;SDS011;24180;42.676;23.320;2022-12-13T04:24:55;12.30;;;8.70;;
38399;SDS011;24180;42.676;23.320;2022-12-13T04:27:20;10.20;;;8.43;;
38399;SDS011;24180;42.676;23.320;2022-12-13T04:29:45;12.47;;;8.90;;
38399;SDS011;24180;42.676;23.320;2022-12-13T04:32:11;13.47;;;9.03;;
38399;SDS011;24180;42.676;23.320;2022-12-13T04:34:36;11.53;;;8.57;;
38399;SDS011;24180;42.676;23.320;2022-12-13T04:37:02;14.10;;;9.53;;
38399;SDS011;24180;42.676;23.320;2022-12-13T04:39:27;11.40;;;9.50;;
38399;SDS011;24180;42.676;23.320;2022-12-13T04:41:53;15.63;;;10.40;;
38399;SDS011;24180;42.676;23.320;2022-12-13T04:44:18;13.97;;;10.17;;
38399;SDS011;24180;42.676;23.320;2022-12-13T04:46:44;9.23;;;6.83;;
38399;SDS011;24180;42.676;23.320;2022-12-13T04:49:09;10.93;;;8.90;;
38399;SDS011;24180;42.676;23.320;2022-12-13T04:51:35;12.43;;;8.30;;
38399;SDS011;24180;42.676;23.320;2022-12-13T04:54:00;12.03;;;8.30;;
38399;SDS011;24180;42.676;23.320;2022-12-13T04:56:26;8.33;;;7.07;;
38399;SDS011;24180;42.676;23.320;2022-12-13T04:58:51;8.10;;;6.23;;
38399;SDS011;24180;42.676;23.320;2022-12-13T05:01:16;11.93;;;8.80;;
38399;SDS011;24180;42.676;23.320;2022-12-13T05:03:42;13.53;;;9.37;;
38399;SDS011;24180;42.676;23.320;2022-12-13T05:06:09;9.47;;;7.47;;
38399;SDS011;24180;42.676;23.320;2022-12-13T05:08:35;13.03;;;9.33;;
38399;SDS011;24180;42.676;23.320;2022-12-13T05:11:02;16.73;;;10.90;;
38399;SDS011;24180;42.676;23.320;2022-12-13T05:13:28;13.17;;;8.83;;
38399;SDS011;24180;42.676;23.320;2022-12-13T05:15:55;11.03;;;6.67;;
38399;SDS011;24180;42.676;23.320;2022-12-13T05:18:25;9.27;;;7.23;;
38399;SDS011;24180;42.676;23.320;2022-12-13T05:20:51;10.53;;;6.93;;
38399;SDS011;24180;42.676;23.320;2022-12-13T05:23:22;8.23;;;6.17;;
38399;SDS011;24180;42.676;23.320;2022-12-13T05:25:49;10.20;;;7.10;;
38399;SDS011;24180;42.676;23.320;2022-12-13T05:28:15;11.33;;;6.53;;
38399;SDS011;24180;42.676;23.320;2022-12-13T05:30:40;9.50;;;5.87;;
38399;SDS011;24180;42.676;23.320;2022-12-13T05:33:07;9.33;;;6.73;;
38399;SDS011;24180;42.676;23.320;2022-12-13T05:35:33;10.33;;;8.47;;
38399;SDS011;24180;42.676;23.320;2022-12-13T05:37:59;10.73;;;6.53;;
38399;SDS011;24180;42.676;23.320;2022-12-13T05:40:25;10.60;;;7.67;;
38399;SDS011;24180;42.676;23.320;2022-12-13T05:42:52;11.77;;;7.90;;
38399;SDS011;24180;42.676;23.320;2022-12-13T05:45:18;12.40;;;8.37;;
38399;SDS011;24180;42.676;23.320;2022-12-13T05:47:44;13.60;;;9.47;;
38399;SDS011;24180;42.676;23.320;2022-12-13T05:50:11;10.23;;;7.73;;
38399;SDS011;24180;42.676;23.320;2022-12-13T05:52:37;14.27;;;8.87;;
38399;SDS011;24180;42.676;23.320;2022-12-13T05:55:03;14.60;;;10.30;;
38399;SDS011;24180;42.676;23.320;2022-12-13T05:57:28;7.57;;;5.67;;
38399;SDS011;24180;42.676;23.320;2022-12-13T05:59:54;12.10;;;9.13;;
38399;SDS011;24180;42.676;23.320;2022-12-13T06:02:19;9.93;;;7.17;;
38399;SDS011;24180;42.676;23.320;2022-12-13T06:04:45;13.73;;;8.50;;
38399;SDS011;24180;42.676;23.320;2022-12-13T06:07:11;10.37;;;6.87;;
38399;SDS011;24180;42.676;23.320;2022-12-13T06:09:36;13.60;;;9.23;;
38399;SDS011;24180;42.676;23.320;2022-12-13T06:12:02;13.23;;;9.30;;
38399;SDS011;24180;42.676;23.320;2022-12-13T06:14:28;13.20;;;8.97;;
38399;SDS011;24180;42.676;23.320;2022-12-13T06:16:53;8.23;;;6.73;;
38399;SDS011;24180;42.676;23.320;2022-12-13T06:19:20;14.30;;;9.90;;
38399;SDS011;24180;42.676;23.320;2022-12-13T06:21:46;15.20;;;9.40;;
38399;SDS011;24180;42.676;23.320;2022-12-13T06:24:15;11.80;;;9.53;;
38399;SDS011;24180;42.676;23.320;2022-12-13T06:26:42;11.40;;;7.77;;
38399;SDS011;24180;42.676;23.320;2022-12-13T06:29:08;12.07;;;6.43;;
38399;SDS011;24180;42.676;23.320;2022-12-13T06:31:34;15.97;;;10.70;;
38399;SDS011;24180;42.676;23.320;2022-12-13T06:34:03;13.80;;;9.50;;
38399;SDS011;24180;42.676;23.320;2022-12-13T06:36:29;14.83;;;9.87;;
38399;SDS011;24180;42.676;23.320;2022-12-13T06:38:55;10.33;;;7.27;;
38399;SDS011;24180;42.676;23.320;2022-12-13T06:41:20;13.57;;;9.63;;
38399;SDS011;24180;42.676;23.320;2022-12-13T06:43:46;14.97;;;10.03;;
38399;SDS011;24180;42.676;23.320;2022-12-13T06:46:13;15.43;;;11.03;;
38399;SDS011;24180;42.676;23.320;2022-12-13T06:48:39;12.87;;;9.63;;
38399;SDS011;24180;42.676;23.320;2022-12-13T06:51:05;13.23;;;10.10;;
38399;SDS011;24180;42.676;23.320;2022-12-13T06:53:31;16.90;;;10.90;;
38399;SDS011;24180;42.676;23.320;2022-12-13T06:56:06;14.07;;;10.37;;
38399;SDS011;24180;42.676;23.320;2022-12-13T06:58:34;16.57;;;10.80;;
38399;SDS011;24180;42.676;23.320;2022-12-13T07:01:01;13.03;;;9.97;;
38399;SDS011;24180;42.676;23.320;2022-12-13T07:03:28;23.40;;;10.60;;
38399;SDS011;24180;42.676;23.320;2022-12-13T07:05:54;15.17;;;10.23;;
38399;SDS011;24180;42.676;23.320;2022-12-13T07:08:19;14.50;;;9.30;;
38399;SDS011;24180;42.676;23.320;2022-12-13T07:10:44;12.83;;;9.97;;
38399;SDS011;24180;42.676;23.320;2022-12-13T07:13:10;14.57;;;8.73;;
38399;SDS011;24180;42.676;23.320;2022-12-13T07:15:35;12.57;;;10.07;;
38399;SDS011;24180;42.676;23.320;2022-12-13T07:18:01;12.17;;;8.80;;
38399;SDS011;24180;42.676;23.320;2022-12-13T07:20:26;16.07;;;9.77;;
38399;SDS011;24180;42.676;23.320;2022-12-13T07:22:51;13.17;;;9.13;;
38399;SDS011;24180;42.676;23.320;2022-12-13T07:25:20;13.97;;;9.70;;
38399;SDS011;24180;42.676;23.320;2022-12-13T07:27:46;12.50;;;8.63;;
38399;SDS011;24180;42.676;23.320;2022-12-13T07:30:12;13.53;;;8.63;;
38399;SDS011;24180;42.676;23.320;2022-12-13T07:32:39;13.13;;;9.50;;
38399;SDS011;24180;42.676;23.320;2022-12-13T07:35:04;12.20;;;9.30;;
38399;SDS011;24180;42.676;23.320;2022-12-13T07:37:30;13.17;;;9.70;;
38399;SDS011;24180;42.676;23.320;2022-12-13T07:39:55;13.50;;;9.57;;
38399;SDS011;24180;42.676;23.320;2022-12-13T07:42:21;14.93;;;10.27;;
38399;SDS011;24180;42.676;23.320;2022-12-13T07:44:46;16.87;;;9.97;;
38399;SDS011;24180;42.676;23.320;2022-12-13T07:47:11;14.50;;;10.83;;
38399;SDS011;24180;42.676;23.320;2022-12-13T07:49:37;15.73;;;10.43;;
38399;SDS011;24180;42.676;23.320;2022-12-13T07:52:04;18.47;;;10.43;;
38399;SDS011;24180;42.676;23.320;2022-12-13T07:54:35;12.67;;;9.10;;
38399;SDS011;24180;42.676;23.320;2022-12-13T07:57:00;16.27;;;10.07;;
38399;SDS011;24180;42.676;23.320;2022-12-13T07:59:26;14.30;;;10.20;;
38399;SDS011;24180;42.676;23.320;2022-12-13T08:01:51;15.73;;;10.23;;
38399;SDS011;24180;42.676;23.320;2022-12-13T08:04:16;13.20;;;9.50;;
38399;SDS011;24180;42.676;23.320;2022-12-13T08:06:42;15.37;;;10.57;;
38399;SDS011;24180;42.676;23.320;2022-12-13T08:09:07;13.17;;;9.87;;
38399;SDS011;24180;42.676;23.320;2022-12-13T08:11:33;13.90;;;10.03;;
38399;SDS011;24180;42.676;23.320;2022-12-13T08:13:58;13.27;;;8.97;;
38399;SDS011;24180;42.676;23.320;2022-12-13T08:16:24;12.47;;;9.63;;
38399;SDS011;24180;42.676;23.320;2022-12-13T08:18:49;15.37;;;10.43;;
38399;SDS011;24180;42.676;23.320;2022-12-13T08:21:14;16.17;;;10.53;;
38399;SDS011;24180;42.676;23.320;2022-12-13T08:23:40;14.43;;;9.80;;
38399;SDS011;24180;42.676;23.320;2022-12-13T08:26:07;13.50;;;9.77;;
38399;SDS011;24180;42.676;23.320;2022-12-13T08:28:33;13.63;;;9.67;;
38399;SDS011;24180;42.676;23.320;2022-12-13T08:31:05;16.47;;;9.90;;
38399;SDS011;24180;42.676;23.320;2022-12-13T08:33:33;15.43;;;10.37;;
38399;SDS011;24180;42.676;23.320;2022-12-13T08:36:14;15.13;;;11.27;;
38399;SDS011;24180;42.676;23.320;2022-12-13T08:38:41;14.20;;;10.50;;
38399;SDS011;24180;42.676;23.320;2022-12-13T08:41:08;14.97;;;10.33;;
38399;SDS011;24180;42.676;23.320;2022-12-13T08:43:34;14.13;;;9.70;;
38399;SDS011;24180;42.676;23.320;2022-12-13T08:46:00;14.83;;;9.30;;
38399;SDS011;24180;42.676;23.320;2022-12-13T08:48:26;18.23;;;11.97;;
38399;SDS011;24180;42.676;23.320;2022-12-13T08:50:51;15.30;;;10.73;;
38399;SDS011;24180;42.676;23.320;2022-12-13T08:53:17;17.10;;;10.93;;
38399;SDS011;24180;42.676;23.320;2022-12-13T08:55:42;14.43;;;10.77;;
38399;SDS011;24180;42.676;23.320;2022-12-13T08:58:08;15.10;;;10.87;;
38399;SDS011;24180;42.676;23.320;2022-12-13T09:00:34;17.83;;;12.40;;
38399;SDS011;24180;42.676;23.320;2022-12-13T09:03:00;14.20;;;8.83;;
38399;SDS011;24180;42.676;23.320;2022-12-13T09:05:30;33.03;;;18.30;;
38399;SDS011;24180;42.676;23.320;2022-12-13T09:07:57;34.87;;;17.97;;
38399;SDS011;24180;42.676;23.320;2022-12-13T09:10:23;20.80;;;12.73;;
38399;SDS011;24180;42.676;23.320;2022-12-13T09:12:49;13.13;;;8.97;;
38399;SDS011;24180;42.676;23.320;2022-12-13T09:15:14;15.33;;;10.33;;
38399;SDS011;24180;42.676;23.320;2022-12-13T09:17:40;13.53;;;9.23;;
38399;SDS011;24180;42.676;23.320;2022-12-13T09:20:06;13.23;;;9.63;;
38399;SDS011;24180;42.676;23.320;2022-12-13T09:22:33;12.70;;;9.87;;
38399;SDS011;24180;42.676;23.320;2022-12-13T09:25:00;13.63;;;10.60;;
38399;SDS011;24180;42.676;23.320;2022-12-13T09:27:26;13.53;;;8.77;;
38399;SDS011;24180;42.676;23.320;2022-12-13T09:29:52;14.50;;;13.00;;
38399;SDS011;24180;42.676;23.320;2022-12-13T09:32:18;11.90;;;9.30;;
38399;SDS011;24180;42.676;23.320;2022-12-13T09:34:43;13.27;;;9.90;;
38399;SDS011;24180;42.676;23.320;2022-12-13T09:37:08;16.40;;;10.03;;
38399;SDS011;24180;42.676;23.320;2022-12-13T09:39:36;13.50;;;10.50;;
38399;SDS011;24180;42.676;23.320;2022-12-13T09:42:02;10.03;;;8.33;;
38399;SDS011;24180;42.676;23.320;2022-12-13T09:44:37;12.37;;;9.17;;
38399;SDS011;24180;42.676;23.320;2022-12-13T09:47:11;13.93;;;10.07;;
38399;SDS011;24180;42.676;23.320;2022-12-13T09:49:44;15.30;;;11.97;;
38399;SDS011;24180;42.676;23.320;2022-12-13T09:52:11;11.63;;;9.20;;
38399;SDS011;24180;42.676;23.320;2022-12-13T09:54:42;15.93;;;9.80;;
38399;SDS011;24180;42.676;23.320;2022-12-13T09:57:12;14.43;;;11.10;;
38399;SDS011;24180;42.676;23.320;2022-12-13T09:59:41;13.47;;;10.90;;
38399;SDS011;24180;42.676;23.320;2022-12-13T10:02:14;13.17;;;10.23;;
38399;SDS011;24180;42.676;23.320;2022-12-13T10:04:50;13.30;;;10.17;;
38399;SDS011;24180;42.676;23.320;2022-12-13T10:07:18;12.17;;;9.23;;
38399;SDS011;24180;42.676;23.320;2022-12-13T10:09:46;13.97;;;8.97;;
38399;SDS011;24180;42.676;23.320;2022-12-13T10:12:12;12.30;;;8.87;;
38399;SDS011;24180;42.676;23.320;2022-12-13T10:14:48;11.93;;;8.87;;
38399;SDS011;24180;42.676;23.320;2022-12-13T10:17:18;11.87;;;8.87;;
38399;SDS011;24180;42.676;23.320;2022-12-13T10:19:47;10.33;;;8.60;;
38399;SDS011;24180;42.676;23.320;2022-12-13T10:22:16;10.03;;;8.37;;
38399;SDS011;24180;42.676;23.320;2022-12-13T10:24:53;10.17;;;8.73;;
38399;SDS011;24180;42.676;23.320;2022-12-13T10:27:26;18.40;;;9.60;;
38399;SDS011;24180;42.676;23.320;2022-12-13T10:37:59;11.43;;;9.50;;
38399;SDS011;24180;42.676;23.320;2022-12-13T10:40:29;10.37;;;9.07;;
38399;SDS011;24180;42.676;23.320;2022-12-13T10:46:07;9.40;;;8.40;;
38399;SDS011;24180;42.676;23.320;2022-12-13T10:48:48;11.03;;;9.10;;
38399;SDS011;24180;42.676;23.320;2022-12-13T10:51:19;10.13;;;8.67;;
38399;SDS011;24180;42.676;23.320;2022-12-13T10:53:50;9.77;;;8.10;;
38399;SDS011;24180;42.676;23.320;2022-12-13T10:56:19;8.80;;;7.43;;
38399;SDS011;24180;42.676;23.320;2022-12-13T10:58:47;9.77;;;8.23;;
38399;SDS011;24180;42.676;23.320;2022-12-13T11:03:59;11.70;;;8.40;;
38399;SDS011;24180;42.676;23.320;2022-12-13T11:06:44;9.80;;;7.50;;
38399;SDS011;24180;42.676;23.320;2022-12-13T11:12:00;12.20;;;8.93;;
38399;SDS011;24180;42.676;23.320;2022-12-13T11:14:28;11.43;;;8.93;;
38399;SDS011;24180;42.676;23.320;2022-12-13T11:16:57;11.87;;;8.63;;
38399;SDS011;24180;42.676;23.320;2022-12-13T11:19:44;11.83;;;9.60;;
38399;SDS011;24180;42.676;23.320;2022-12-13T11:22:20;15.57;;;10.87;;
38399;SDS011;24180;42.676;23.320;2022-12-13T11:25:38;14.50;;;10.60;;
38399;SDS011;24180;42.676;23.320;2022-12-13T11:36:41;9.07;;;8.00;;
38399;SDS011;24180;42.676;23.320;2022-12-13T11:39:30;9.13;;;8.20;;
38399;SDS011;24180;42.676;23.320;2022-12-13T11:44:56;9.57;;;7.10;;
38399;SDS011;24180;42.676;23.320;2022-12-13T11:47:25;9.20;;;7.20;;
38399;SDS011;24180;42.676;23.320;2022-12-13T11:49:58;12.37;;;8.93;;
38399;SDS011;24180;42.676;23.320;2022-12-13T11:52:26;10.87;;;7.87;;
38399;SDS011;24180;42.676;23.320;2022-12-13T11:54:58;12.50;;;8.90;;
38399;SDS011;24180;42.676;23.320;2022-12-13T11:57:32;12.37;;;8.77;;
38399;SDS011;24180;42.676;23.320;2022-12-13T12:02:58;12.40;;;8.27;;
38399;SDS011;24180;42.676;23.320;2022-12-13T12:05:34;16.97;;;11.10;;
38399;SDS011;24180;42.676;23.320;2022-12-13T12:10:56;18.00;;;11.37;;
38399;SDS011;24180;42.676;23.320;2022-12-13T12:13:44;13.40;;;10.63;;
38399;SDS011;24180;42.676;23.320;2022-12-13T12:19:13;12.90;;;9.33;;
38399;SDS011;24180;42.676;23.320;2022-12-13T12:22:05;13.53;;;8.57;;
38399;SDS011;24180;42.676;23.320;2022-12-13T12:33:45;17.20;;;9.90;;
38399;SDS011;24180;42.676;23.320;2022-12-13T12:43:28;8.30;;;7.40;;
38399;SDS011;24180;42.676;23.320;2022-12-13T12:57:24;52.63;;;20.17;;
38399;SDS011;24180;42.676;23.320;2022-12-13T13:00:03;21.20;;;11.77;;
38399;SDS011;24180;42.676;23.320;2022-12-13T13:05:05;13.53;;;9.60;;
38399;SDS011;24180;42.676;23.320;2022-12-13T13:07:44;15.10;;;10.00;;
38399;SDS011;24180;42.676;23.320;2022-12-13T13:10:14;31.40;;;18.33;;
38399;SDS011;24180;42.676;23.320;2022-12-13T13:12:40;34.93;;;19.53;;
38399;SDS011;24180;42.676;23.320;2022-12-13T13:15:53;19.67;;;10.90;;
38399;SDS011;24180;42.676;23.320;2022-12-13T13:17:55;10.93;;;8.13;;
38399;SDS011;24180;42.676;23.320;2022-12-13T13:20:23;10.70;;;8.17;;
38399;SDS011;24180;42.676;23.320;2022-12-13T13:22:52;10.30;;;8.00;;
38399;SDS011;24180;42.676;23.320;2022-12-13T13:25:29;12.90;;;8.10;;
38399;SDS011;24180;42.676;23.320;2022-12-13T13:28:03;13.63;;;9.17;;
38399;SDS011;24180;42.676;23.320;2022-12-13T13:30:30;14.60;;;9.23;;
38399;SDS011;24180;42.676;23.320;2022-12-13T13:32:56;11.40;;;8.23;;
38399;SDS011;24180;42.676;23.320;2022-12-13T13:38:03;13.27;;;9.70;;
38399;SDS011;24180;42.676;23.320;2022-12-13T13:40:52;13.33;;;9.43;;
38399;SDS011;24180;42.676;23.320;2022-12-13T13:43:28;12.30;;;9.53;;
38399;SDS011;24180;42.676;23.320;2022-12-13T13:45:58;14.90;;;11.00;;
38399;SDS011;24180;42.676;23.320;2022-12-13T13:59:24;27.67;;;18.73;;
38399;SDS011;24180;42.676;23.320;2022-12-13T14:15:03;12.00;;;9.57;;
38399;SDS011;24180;42.676;23.320;2022-12-13T14:30:42;11.73;;;8.77;;
38399;SDS011;24180;42.676;23.320;2022-12-13T14:33:19;14.20;;;9.70;;
38399;SDS011;24180;42.676;23.320;2022-12-13T14:35:50;13.73;;;10.57;;
38399;SDS011;24180;42.676;23.320;2022-12-13T14:38:19;16.80;;;10.80;;
38399;SDS011;24180;42.676;23.320;2022-12-13T14:40:50;18.03;;;11.27;;
38399;SDS011;24180;42.676;23.320;2022-12-13T14:43:25;17.93;;;10.83;;
38399;SDS011;24180;42.676;23.320;2022-12-13T14:45:58;20.33;;;11.33;;
38399;SDS011;24180;42.676;23.320;2022-12-13T14:48:25;16.27;;;12.07;;
38399;SDS011;24180;42.676;23.320;2022-12-13T14:50:53;17.47;;;12.73;;
38399;SDS011;24180;42.676;23.320;2022-12-13T14:53:33;18.67;;;13.33;;
38399;SDS011;24180;42.676;23.320;2022-12-13T14:58:28;22.50;;;14.40;;
38399;SDS011;24180;42.676;23.320;2022-12-13T15:00:54;16.97;;;11.70;;
38399;SDS011;24180;42.676;23.320;2022-12-13T15:03:20;18.87;;;12.77;;
38399;SDS011;24180;42.676;23.320;2022-12-13T15:05:47;15.80;;;11.97;;
38399;SDS011;24180;42.676;23.320;2022-12-13T15:08:18;18.00;;;12.13;;
38399;SDS011;24180;42.676;23.320;2022-12-13T15:10:45;19.23;;;14.10;;
38399;SDS011;24180;42.676;23.320;2022-12-13T15:15:44;83.90;;;36.80;;
38399;SDS011;24180;42.676;23.320;2022-12-13T15:18:17;75.37;;;34.93;;
38399;SDS011;24180;42.676;23.320;2022-12-13T15:20:44;56.07;;;29.17;;
38399;SDS011;24180;42.676;23.320;2022-12-13T15:26:24;60.37;;;29.00;;
38399;SDS011;24180;42.676;23.320;2022-12-13T15:28:43;73.23;;;36.23;;
38399;SDS011;24180;42.676;23.320;2022-12-13T15:31:10;55.53;;;28.20;;
38399;SDS011;24180;42.676;23.320;2022-12-13T15:33:37;66.50;;;32.43;;
38399;SDS011;24180;42.676;23.320;2022-12-13T15:36:07;53.70;;;27.67;;
38399;SDS011;24180;42.676;23.320;2022-12-13T15:41:23;38.73;;;21.77;;
38399;SDS011;24180;42.676;23.320;2022-12-13T15:43:53;32.77;;;20.17;;
38399;SDS011;24180;42.676;23.320;2022-12-13T15:46:22;34.13;;;20.67;;
38399;SDS011;24180;42.676;23.320;2022-12-13T15:48:57;37.77;;;22.50;;
38399;SDS011;24180;42.676;23.320;2022-12-13T15:51:25;33.30;;;20.27;;
38399;SDS011;24180;42.676;23.320;2022-12-13T15:56:36;19.87;;;13.23;;
38399;SDS011;24180;42.676;23.320;2022-12-13T15:59:03;23.13;;;15.23;;
38399;SDS011;24180;42.676;23.320;2022-12-13T16:01:31;24.23;;;16.33;;
38399;SDS011;24180;42.676;23.320;2022-12-13T16:03:58;27.13;;;16.20;;
38399;SDS011;24180;42.676;23.320;2022-12-13T16:06:28;23.97;;;16.37;;
38399;SDS011;24180;42.676;23.320;2022-12-13T16:08:55;26.10;;;16.50;;
38399;SDS011;24180;42.676;23.320;2022-12-13T16:11:25;29.67;;;16.70;;
38399;SDS011;24180;42.676;23.320;2022-12-13T16:13:52;27.47;;;17.10;;
38399;SDS011;24180;42.676;23.320;2022-12-13T16:16:24;28.53;;;17.67;;
38399;SDS011;24180;42.676;23.320;2022-12-13T16:18:52;27.50;;;18.37;;
38399;SDS011;24180;42.676;23.320;2022-12-13T16:21:19;29.83;;;19.90;;
38399;SDS011;24180;42.676;23.320;2022-12-13T16:23:45;32.70;;;19.80;;
38399;SDS011;24180;42.676;23.320;2022-12-13T16:26:11;30.53;;;19.00;;
38399;SDS011;24180;42.676;23.320;2022-12-13T16:28:38;32.47;;;19.97;;
38399;SDS011;24180;42.676;23.320;2022-12-13T16:31:15;29.33;;;20.27;;
38399;SDS011;24180;42.676;23.320;2022-12-13T16:33:46;30.60;;;19.37;;
38399;SDS011;24180;42.676;23.320;2022-12-13T16:36:11;31.53;;;20.53;;
38399;SDS011;24180;42.676;23.320;2022-12-13T16:38:37;30.13;;;20.53;;
38399;SDS011;24180;42.676;23.320;2022-12-13T16:41:03;31.87;;;20.80;;
38399;SDS011;24180;42.676;23.320;2022-12-13T16:43:30;30.97;;;20.53;;
38399;SDS011;24180;42.676;23.320;2022-12-13T16:45:57;29.70;;;21.07;;
38399;SDS011;24180;42.676;23.320;2022-12-13T16:48:23;33.03;;;21.40;;
38399;SDS011;24180;42.676;23.320;2022-12-13T16:50:49;33.40;;;21.20;;
38399;SDS011;24180;42.676;23.320;2022-12-13T16:53:16;33.73;;;21.13;;